sensor_id;sensor_type;location;lat;lon;timestamp;temperature;humidity
34492;DHT22;20737;49.908;8.126;2022-07-03T00:02:24;16.00;99.90
34492;DHT22;20737;49.908;8.126;2022-07-03T00:04:51;16.00;99.90
34492;DHT22;20737;49.908;8.126;2022-07-03T00:07:18;16.00;99.90
34492;DHT22;20737;49.908;8.126;2022-07-03T00:09:46;15.90;99.90
34492;DHT22;20737;49.908;8.126;2022-07-03T00:12:13;15.90;99.90
34492;DHT22;20737;49.908;8.126;2022-07-03T00:14:40;15.70;99.90
34492;DHT22;20737;49.908;8.126;2022-07-03T00:17:07;15.70;99.90
34492;DHT22;20737;49.908;8.126;2022-07-03T00:19:33;15.70;99.90
34492;DHT22;20737;49.908;8.126;2022-07-03T00:22:03;15.70;99.90
34492;DHT22;20737;49.908;8.126;2022-07-03T00:24:33;15.70;99.90
34492;DHT22;20737;49.908;8.126;2022-07-03T00:27:04;15.60;99.90
34492;DHT22;20737;49.908;8.126;2022-07-03T00:29:37;15.50;99.90
34492;DHT22;20737;49.908;8.126;2022-07-03T00:32:05;15.60;99.90
34492;DHT22;20737;49.908;8.126;2022-07-03T00:34:32;15.50;99.90
34492;DHT22;20737;49.908;8.126;2022-07-03T00:37:00;15.50;99.90
34492;DHT22;20737;49.908;8.126;2022-07-03T00:39:27;15.50;99.90
34492;DHT22;20737;49.908;8.126;2022-07-03T00:42:00;15.50;99.90
34492;DHT22;20737;49.908;8.126;2022-07-03T00:44:29;15.40;99.90
34492;DHT22;20737;49.908;8.126;2022-07-03T00:46:58;15.40;99.90
34492;DHT22;20737;49.908;8.126;2022-07-03T00:49:25;15.40;99.90
34492;DHT22;20737;49.908;8.126;2022-07-03T00:51:56;15.40;99.90
34492;DHT22;20737;49.908;8.126;2022-07-03T00:54:25;15.40;99.90
34492;DHT22;20737;49.908;8.126;2022-07-03T00:56:54;15.40;99.90
34492;DHT22;20737;49.908;8.126;2022-07-03T00:59:23;15.30;99.90
34492;DHT22;20737;49.908;8.126;2022-07-03T01:01:56;15.30;99.90
34492;DHT22;20737;49.908;8.126;2022-07-03T01:04:36;15.20;99.90
34492;DHT22;20737;49.908;8.126;2022-07-03T01:07:07;15.10;99.90
34492;DHT22;20737;49.908;8.126;2022-07-03T01:09:46;15.10;99.90
34492;DHT22;20737;49.908;8.126;2022-07-03T01:12:22;15.10;99.90
34492;DHT22;20737;49.908;8.126;2022-07-03T01:14:58;15.10;99.90
34492;DHT22;20737;49.908;8.126;2022-07-03T01:17:37;15.10;99.90
34492;DHT22;20737;49.908;8.126;2022-07-03T01:20:06;15.00;99.90
34492;DHT22;20737;49.908;8.126;2022-07-03T01:22:35;15.00;99.90
34492;DHT22;20737;49.908;8.126;2022-07-03T01:25:23;15.00;99.90
34492;DHT22;20737;49.908;8.126;2022-07-03T01:28:07;15.00;99.90
34492;DHT22;20737;49.908;8.126;2022-07-03T01:30:36;15.00;99.90
34492;DHT22;20737;49.908;8.126;2022-07-03T01:33:07;14.90;99.90
34492;DHT22;20737;49.908;8.126;2022-07-03T01:35:36;14.90;99.90
34492;DHT22;20737;49.908;8.126;2022-07-03T01:38:07;14.90;99.90
34492;DHT22;20737;49.908;8.126;2022-07-03T01:40:35;14.80;99.90
34492;DHT22;20737;49.908;8.126;2022-07-03T01:43:06;14.90;99.90
34492;DHT22;20737;49.908;8.126;2022-07-03T01:45:36;14.80;99.90
34492;DHT22;20737;49.908;8.126;2022-07-03T01:48:07;14.80;99.90
34492;DHT22;20737;49.908;8.126;2022-07-03T01:50:34;14.80;99.90
34492;DHT22;20737;49.908;8.126;2022-07-03T01:53:03;14.80;99.90
34492;DHT22;20737;49.908;8.126;2022-07-03T01:55:32;14.80;99.90
34492;DHT22;20737;49.908;8.126;2022-07-03T01:58:00;14.80;99.90
34492;DHT22;20737;49.908;8.126;2022-07-03T02:00:29;14.80;99.90
34492;DHT22;20737;49.908;8.126;2022-07-03T02:02:59;14.80;99.90
34492;DHT22;20737;49.908;8.126;2022-07-03T02:05:35;14.80;99.90
34492;DHT22;20737;49.908;8.126;2022-07-03T02:08:22;14.80;99.90
34492;DHT22;20737;49.908;8.126;2022-07-03T02:11:00;14.70;99.90
34492;DHT22;20737;49.908;8.126;2022-07-03T02:13:31;14.70;99.90
34492;DHT22;20737;49.908;8.126;2022-07-03T02:16:05;14.60;99.90
34492;DHT22;20737;49.908;8.126;2022-07-03T02:18:36;14.60;99.90
34492;DHT22;20737;49.908;8.126;2022-07-03T02:21:09;14.60;99.90
34492;DHT22;20737;49.908;8.126;2022-07-03T02:23:42;14.40;99.90
34492;DHT22;20737;49.908;8.126;2022-07-03T02:26:14;14.40;99.90
34492;DHT22;20737;49.908;8.126;2022-07-03T02:28:52;14.40;99.90
34492;DHT22;20737;49.908;8.126;2022-07-03T02:31:24;14.30;99.90
34492;DHT22;20737;49.908;8.126;2022-07-03T02:33:56;14.30;99.90
34492;DHT22;20737;49.908;8.126;2022-07-03T02:36:24;14.30;99.90
34492;DHT22;20737;49.908;8.126;2022-07-03T02:38:56;14.20;99.90
34492;DHT22;20737;49.908;8.126;2022-07-03T02:41:28;14.30;99.90
34492;DHT22;20737;49.908;8.126;2022-07-03T02:43:59;14.20;99.90
34492;DHT22;20737;49.908;8.126;2022-07-03T02:46:38;14.20;99.90
34492;DHT22;20737;49.908;8.126;2022-07-03T02:49:22;14.30;99.90
34492;DHT22;20737;49.908;8.126;2022-07-03T02:52:01;14.30;99.90
34492;DHT22;20737;49.908;8.126;2022-07-03T02:54:33;14.10;99.90
34492;DHT22;20737;49.908;8.126;2022-07-03T02:57:06;14.10;99.90
34492;DHT22;20737;49.908;8.126;2022-07-03T02:59:43;14.20;99.90
34492;DHT22;20737;49.908;8.126;2022-07-03T03:02:19;14.00;99.90
34492;DHT22;20737;49.908;8.126;2022-07-03T03:04:55;14.10;99.90
34492;DHT22;20737;49.908;8.126;2022-07-03T03:07:27;14.00;99.90
34492;DHT22;20737;49.908;8.126;2022-07-03T03:09:56;14.00;99.90
34492;DHT22;20737;49.908;8.126;2022-07-03T03:12:30;13.90;99.90
34492;DHT22;20737;49.908;8.126;2022-07-03T03:15:01;13.80;99.90
34492;DHT22;20737;49.908;8.126;2022-07-03T03:17:36;13.80;99.90
34492;DHT22;20737;49.908;8.126;2022-07-03T03:20:06;13.80;99.90
34492;DHT22;20737;49.908;8.126;2022-07-03T03:22:49;13.70;99.90
34492;DHT22;20737;49.908;8.126;2022-07-03T03:25:19;13.70;99.90
34492;DHT22;20737;49.908;8.126;2022-07-03T03:27:46;13.70;99.90
34492;DHT22;20737;49.908;8.126;2022-07-03T03:30:13;13.60;99.90
34492;DHT22;20737;49.908;8.126;2022-07-03T03:32:41;13.70;99.90
34492;DHT22;20737;49.908;8.126;2022-07-03T03:35:09;13.60;99.90
34492;DHT22;20737;49.908;8.126;2022-07-03T03:37:36;13.60;99.90
34492;DHT22;20737;49.908;8.126;2022-07-03T03:40:03;13.60;99.90
34492;DHT22;20737;49.908;8.126;2022-07-03T03:42:30;13.60;99.90
34492;DHT22;20737;49.908;8.126;2022-07-03T03:44:57;13.70;99.90
34492;DHT22;20737;49.908;8.126;2022-07-03T03:47:24;13.80;99.90
34492;DHT22;20737;49.908;8.126;2022-07-03T03:49:52;13.80;99.90
34492;DHT22;20737;49.908;8.126;2022-07-03T03:52:19;13.80;99.90
34492;DHT22;20737;49.908;8.126;2022-07-03T03:54:45;13.80;99.90
34492;DHT22;20737;49.908;8.126;2022-07-03T03:57:17;13.80;99.90
34492;DHT22;20737;49.908;8.126;2022-07-03T03:59:44;13.80;99.90
34492;DHT22;20737;49.908;8.126;2022-07-03T04:02:11;13.80;99.90
34492;DHT22;20737;49.908;8.126;2022-07-03T04:04:38;13.90;99.90
34492;DHT22;20737;49.908;8.126;2022-07-03T04:07:07;14.00;99.90
34492;DHT22;20737;49.908;8.126;2022-07-03T04:09:34;14.00;99.90
34492;DHT22;20737;49.908;8.126;2022-07-03T04:12:02;14.10;99.90
34492;DHT22;20737;49.908;8.126;2022-07-03T04:14:29;14.10;99.90
34492;DHT22;20737;49.908;8.126;2022-07-03T04:16:56;14.20;99.90
34492;DHT22;20737;49.908;8.126;2022-07-03T04:19:23;14.30;99.90
34492;DHT22;20737;49.908;8.126;2022-07-03T04:21:49;14.20;99.90
34492;DHT22;20737;49.908;8.126;2022-07-03T04:24:19;14.30;99.90
34492;DHT22;20737;49.908;8.126;2022-07-03T04:26:45;14.40;99.90
34492;DHT22;20737;49.908;8.126;2022-07-03T04:29:12;14.40;99.90
34492;DHT22;20737;49.908;8.126;2022-07-03T04:31:39;14.50;99.90
34492;DHT22;20737;49.908;8.126;2022-07-03T04:34:06;14.50;99.90
34492;DHT22;20737;49.908;8.126;2022-07-03T04:36:33;14.60;99.90
34492;DHT22;20737;49.908;8.126;2022-07-03T04:39:00;14.70;99.90
34492;DHT22;20737;49.908;8.126;2022-07-03T04:41:28;14.80;99.90
34492;DHT22;20737;49.908;8.126;2022-07-03T04:43:55;14.80;99.90
34492;DHT22;20737;49.908;8.126;2022-07-03T04:46:22;14.90;99.90
34492;DHT22;20737;49.908;8.126;2022-07-03T04:48:48;14.90;99.90
34492;DHT22;20737;49.908;8.126;2022-07-03T04:51:15;15.00;99.90
34492;DHT22;20737;49.908;8.126;2022-07-03T04:53:42;15.10;99.90
34492;DHT22;20737;49.908;8.126;2022-07-03T04:56:09;15.20;99.90
34492;DHT22;20737;49.908;8.126;2022-07-03T04:58:37;15.30;99.90
34492;DHT22;20737;49.908;8.126;2022-07-03T05:01:04;15.50;99.90
34492;DHT22;20737;49.908;8.126;2022-07-03T05:03:31;15.50;99.90
34492;DHT22;20737;49.908;8.126;2022-07-03T05:05:58;15.70;99.90
34492;DHT22;20737;49.908;8.126;2022-07-03T05:08:24;15.80;99.90
34492;DHT22;20737;49.908;8.126;2022-07-03T05:10:51;15.90;99.90
34492;DHT22;20737;49.908;8.126;2022-07-03T05:13:18;16.00;99.90
34492;DHT22;20737;49.908;8.126;2022-07-03T05:15:46;16.10;99.90
34492;DHT22;20737;49.908;8.126;2022-07-03T05:18:13;16.20;99.90
34492;DHT22;20737;49.908;8.126;2022-07-03T05:20:40;16.40;99.90
34492;DHT22;20737;49.908;8.126;2022-07-03T05:23:06;16.60;99.90
34492;DHT22;20737;49.908;8.126;2022-07-03T05:25:33;16.70;99.90
34492;DHT22;20737;49.908;8.126;2022-07-03T05:28:00;16.90;99.90
34492;DHT22;20737;49.908;8.126;2022-07-03T05:30:27;17.20;99.90
34492;DHT22;20737;49.908;8.126;2022-07-03T05:32:56;17.30;99.90
34492;DHT22;20737;49.908;8.126;2022-07-03T05:35:23;17.50;99.90
34492;DHT22;20737;49.908;8.126;2022-07-03T05:37:50;17.70;99.90
34492;DHT22;20737;49.908;8.126;2022-07-03T05:40:17;17.70;99.90
34492;DHT22;20737;49.908;8.126;2022-07-03T05:42:44;17.80;99.90
34492;DHT22;20737;49.908;8.126;2022-07-03T05:45:11;17.90;99.90
34492;DHT22;20737;49.908;8.126;2022-07-03T05:47:38;18.10;99.90
34492;DHT22;20737;49.908;8.126;2022-07-03T05:50:07;18.20;99.90
34492;DHT22;20737;49.908;8.126;2022-07-03T05:52:34;18.30;99.90
34492;DHT22;20737;49.908;8.126;2022-07-03T05:55:01;18.50;99.90
34492;DHT22;20737;49.908;8.126;2022-07-03T05:57:27;18.60;99.90
34492;DHT22;20737;49.908;8.126;2022-07-03T05:59:54;18.70;99.90
34492;DHT22;20737;49.908;8.126;2022-07-03T06:02:21;18.90;99.90
34492;DHT22;20737;49.908;8.126;2022-07-03T06:04:48;19.10;99.90
34492;DHT22;20737;49.908;8.126;2022-07-03T06:07:16;19.20;99.90
34492;DHT22;20737;49.908;8.126;2022-07-03T06:09:43;19.40;99.90
34492;DHT22;20737;49.908;8.126;2022-07-03T06:12:10;19.50;99.90
34492;DHT22;20737;49.908;8.126;2022-07-03T06:14:37;19.70;99.90
34492;DHT22;20737;49.908;8.126;2022-07-03T06:17:04;19.80;99.90
34492;DHT22;20737;49.908;8.126;2022-07-03T06:19:31;20.10;99.90
34492;DHT22;20737;49.908;8.126;2022-07-03T06:21:58;20.30;99.90
34492;DHT22;20737;49.908;8.126;2022-07-03T06:24:26;20.50;99.90
34492;DHT22;20737;49.908;8.126;2022-07-03T06:26:53;20.60;99.90
34492;DHT22;20737;49.908;8.126;2022-07-03T06:29:19;20.80;99.90
34492;DHT22;20737;49.908;8.126;2022-07-03T06:31:46;21.00;99.90
34492;DHT22;20737;49.908;8.126;2022-07-03T06:34:13;21.00;99.90
34492;DHT22;20737;49.908;8.126;2022-07-03T06:36:40;21.20;99.90
34492;DHT22;20737;49.908;8.126;2022-07-03T06:39:06;21.40;99.90
34492;DHT22;20737;49.908;8.126;2022-07-03T06:41:35;21.70;99.90
34492;DHT22;20737;49.908;8.126;2022-07-03T06:44:03;22.50;99.90
34492;DHT22;20737;49.908;8.126;2022-07-03T06:46:30;23.60;99.90
34492;DHT22;20737;49.908;8.126;2022-07-03T06:48:56;24.50;99.90
34492;DHT22;20737;49.908;8.126;2022-07-03T06:51:23;25.10;99.90
34492;DHT22;20737;49.908;8.126;2022-07-03T06:53:50;25.70;99.90
34492;DHT22;20737;49.908;8.126;2022-07-03T06:56:17;26.50;99.90
34492;DHT22;20737;49.908;8.126;2022-07-03T06:58:45;27.50;98.00
34492;DHT22;20737;49.908;8.126;2022-07-03T07:01:12;27.70;95.20
34492;DHT22;20737;49.908;8.126;2022-07-03T07:03:38;28.10;93.40
34492;DHT22;20737;49.908;8.126;2022-07-03T07:06:05;28.50;93.30
34492;DHT22;20737;49.908;8.126;2022-07-03T07:08:32;28.70;87.60
34492;DHT22;20737;49.908;8.126;2022-07-03T07:10:59;29.40;87.70
34492;DHT22;20737;49.908;8.126;2022-07-03T07:13:26;29.40;85.80
34492;DHT22;20737;49.908;8.126;2022-07-03T07:15:54;30.20;79.10
34492;DHT22;20737;49.908;8.126;2022-07-03T07:18:20;29.90;82.50
34492;DHT22;20737;49.908;8.126;2022-07-03T07:20:47;30.70;76.50
34492;DHT22;20737;49.908;8.126;2022-07-03T07:23:14;30.30;74.10
34492;DHT22;20737;49.908;8.126;2022-07-03T07:25:41;30.50;73.10
34492;DHT22;20737;49.908;8.126;2022-07-03T07:28:08;31.30;70.10
34492;DHT22;20737;49.908;8.126;2022-07-03T07:30:35;31.40;64.70
34492;DHT22;20737;49.908;8.126;2022-07-03T07:33:03;31.70;63.30
34492;DHT22;20737;49.908;8.126;2022-07-03T07:35:30;32.00;63.50
34492;DHT22;20737;49.908;8.126;2022-07-03T07:37:57;32.00;59.80
34492;DHT22;20737;49.908;8.126;2022-07-03T07:40:24;31.50;63.30
34492;DHT22;20737;49.908;8.126;2022-07-03T07:42:51;31.80;61.20
34492;DHT22;20737;49.908;8.126;2022-07-03T07:45:18;32.20;58.70
34492;DHT22;20737;49.908;8.126;2022-07-03T07:47:45;31.80;60.40
34492;DHT22;20737;49.908;8.126;2022-07-03T07:50:13;32.80;57.10
34492;DHT22;20737;49.908;8.126;2022-07-03T07:52:40;33.00;56.80
34492;DHT22;20737;49.908;8.126;2022-07-03T07:55:07;33.80;53.40
34492;DHT22;20737;49.908;8.126;2022-07-03T07:57:34;33.40;54.60
34492;DHT22;20737;49.908;8.126;2022-07-03T08:00:06;32.80;57.10
34492;DHT22;20737;49.908;8.126;2022-07-03T08:02:33;32.80;55.70
34492;DHT22;20737;49.908;8.126;2022-07-03T08:05:19;33.40;55.20
34492;DHT22;20737;49.908;8.126;2022-07-03T08:08:08;33.10;56.00
34492;DHT22;20737;49.908;8.126;2022-07-03T08:10:39;32.80;57.00
34492;DHT22;20737;49.908;8.126;2022-07-03T08:13:07;33.90;55.60
34492;DHT22;20737;49.908;8.126;2022-07-03T08:15:35;33.30;55.00
34492;DHT22;20737;49.908;8.126;2022-07-03T08:18:03;33.60;55.90
34492;DHT22;20737;49.908;8.126;2022-07-03T08:20:31;32.60;57.70
34492;DHT22;20737;49.908;8.126;2022-07-03T08:22:58;31.60;59.80
34492;DHT22;20737;49.908;8.126;2022-07-03T08:25:25;31.30;60.20
34492;DHT22;20737;49.908;8.126;2022-07-03T08:27:53;30.60;61.10
34492;DHT22;20737;49.908;8.126;2022-07-03T08:30:19;30.20;66.20
34492;DHT22;20737;49.908;8.126;2022-07-03T08:32:48;30.20;64.00
34492;DHT22;20737;49.908;8.126;2022-07-03T08:35:15;29.80;66.40
34492;DHT22;20737;49.908;8.126;2022-07-03T08:37:43;29.90;67.30
34492;DHT22;20737;49.908;8.126;2022-07-03T08:40:13;29.80;68.20
34492;DHT22;20737;49.908;8.126;2022-07-03T08:42:45;29.90;70.50
34492;DHT22;20737;49.908;8.126;2022-07-03T08:45:13;29.90;68.00
34492;DHT22;20737;49.908;8.126;2022-07-03T08:47:42;30.00;67.90
34492;DHT22;20737;49.908;8.126;2022-07-03T08:50:10;29.90;65.00
34492;DHT22;20737;49.908;8.126;2022-07-03T08:52:37;29.80;63.60
34492;DHT22;20737;49.908;8.126;2022-07-03T08:55:10;29.90;65.60
34492;DHT22;20737;49.908;8.126;2022-07-03T08:57:38;29.60;59.40
34492;DHT22;20737;49.908;8.126;2022-07-03T09:00:08;29.70;61.40
34492;DHT22;20737;49.908;8.126;2022-07-03T09:02:35;29.90;63.50
34492;DHT22;20737;49.908;8.126;2022-07-03T09:05:07;30.00;63.70
34492;DHT22;20737;49.908;8.126;2022-07-03T09:07:35;30.00;60.90
34492;DHT22;20737;49.908;8.126;2022-07-03T09:10:03;30.10;61.80
34492;DHT22;20737;49.908;8.126;2022-07-03T09:12:31;30.50;61.60
34492;DHT22;20737;49.908;8.126;2022-07-03T09:14:58;30.60;64.10
34492;DHT22;20737;49.908;8.126;2022-07-03T09:17:26;30.70;57.70
34492;DHT22;20737;49.908;8.126;2022-07-03T09:19:54;31.00;58.90
34492;DHT22;20737;49.908;8.126;2022-07-03T09:22:25;30.80;54.20
34492;DHT22;20737;49.908;8.126;2022-07-03T09:24:53;30.40;53.60
34492;DHT22;20737;49.908;8.126;2022-07-03T09:27:22;30.40;55.30
34492;DHT22;20737;49.908;8.126;2022-07-03T09:30:02;30.40;55.50
34492;DHT22;20737;49.908;8.126;2022-07-03T09:32:32;30.50;55.30
34492;DHT22;20737;49.908;8.126;2022-07-03T09:35:25;30.60;54.60
34492;DHT22;20737;49.908;8.126;2022-07-03T09:37:54;31.10;52.60
34492;DHT22;20737;49.908;8.126;2022-07-03T09:40:21;31.30;54.60
34492;DHT22;20737;49.908;8.126;2022-07-03T09:43:02;31.60;53.50
34492;DHT22;20737;49.908;8.126;2022-07-03T09:45:52;31.70;53.60
34492;DHT22;20737;49.908;8.126;2022-07-03T09:48:24;32.10;51.60
34492;DHT22;20737;49.908;8.126;2022-07-03T09:51:11;32.10;50.00
34492;DHT22;20737;49.908;8.126;2022-07-03T09:53:50;32.30;50.20
34492;DHT22;20737;49.908;8.126;2022-07-03T09:56:18;32.20;50.90
34492;DHT22;20737;49.908;8.126;2022-07-03T09:59:08;32.60;51.10
34492;DHT22;20737;49.908;8.126;2022-07-03T10:01:37;32.70;51.10
34492;DHT22;20737;49.908;8.126;2022-07-03T10:04:15;33.20;49.00
34492;DHT22;20737;49.908;8.126;2022-07-03T10:06:47;33.40;51.40
34492;DHT22;20737;49.908;8.126;2022-07-03T10:09:15;33.70;48.30
34492;DHT22;20737;49.908;8.126;2022-07-03T10:11:43;34.00;48.40
34492;DHT22;20737;49.908;8.126;2022-07-03T10:14:13;34.00;48.60
34492;DHT22;20737;49.908;8.126;2022-07-03T10:16:41;34.00;46.70
34492;DHT22;20737;49.908;8.126;2022-07-03T10:19:13;34.30;47.20
34492;DHT22;20737;49.908;8.126;2022-07-03T10:21:41;34.10;46.50
34492;DHT22;20737;49.908;8.126;2022-07-03T10:24:10;33.60;49.80
34492;DHT22;20737;49.908;8.126;2022-07-03T10:26:39;33.20;48.80
34492;DHT22;20737;49.908;8.126;2022-07-03T10:29:08;33.70;50.00
34492;DHT22;20737;49.908;8.126;2022-07-03T10:31:37;33.90;49.50
34492;DHT22;20737;49.908;8.126;2022-07-03T10:34:06;33.90;48.50
34492;DHT22;20737;49.908;8.126;2022-07-03T10:36:33;33.90;47.60
34492;DHT22;20737;49.908;8.126;2022-07-03T10:39:06;34.30;48.90
34492;DHT22;20737;49.908;8.126;2022-07-03T10:41:35;35.00;44.90
34492;DHT22;20737;49.908;8.126;2022-07-03T10:44:20;35.00;45.20
34492;DHT22;20737;49.908;8.126;2022-07-03T10:47:04;35.00;46.60
34492;DHT22;20737;49.908;8.126;2022-07-03T10:49:33;35.30;49.70
34492;DHT22;20737;49.908;8.126;2022-07-03T10:52:02;34.90;46.10
34492;DHT22;20737;49.908;8.126;2022-07-03T10:54:31;34.90;46.30
34492;DHT22;20737;49.908;8.126;2022-07-03T10:57:14;34.60;45.40
34492;DHT22;20737;49.908;8.126;2022-07-03T11:00:03;34.40;47.70
34492;DHT22;20737;49.908;8.126;2022-07-03T11:02:36;34.90;47.50
34492;DHT22;20737;49.908;8.126;2022-07-03T11:05:22;35.10;47.00
34492;DHT22;20737;49.908;8.126;2022-07-03T11:08:09;35.20;44.40
34492;DHT22;20737;49.908;8.126;2022-07-03T11:10:37;35.00;45.90
34492;DHT22;20737;49.908;8.126;2022-07-03T11:13:12;34.20;46.50
34492;DHT22;20737;49.908;8.126;2022-07-03T11:15:43;34.20;47.20
34492;DHT22;20737;49.908;8.126;2022-07-03T11:18:17;34.00;47.20
34492;DHT22;20737;49.908;8.126;2022-07-03T11:21:18;33.60;46.80
34492;DHT22;20737;49.908;8.126;2022-07-03T11:24:11;32.70;46.30
34492;DHT22;20737;49.908;8.126;2022-07-03T11:26:40;32.50;50.10
34492;DHT22;20737;49.908;8.126;2022-07-03T11:29:25;32.40;49.00
34492;DHT22;20737;49.908;8.126;2022-07-03T11:31:52;31.90;50.80
34492;DHT22;20737;49.908;8.126;2022-07-03T11:34:19;31.50;49.20
34492;DHT22;20737;49.908;8.126;2022-07-03T11:36:47;32.10;54.20
34492;DHT22;20737;49.908;8.126;2022-07-03T11:39:18;32.70;49.60
34492;DHT22;20737;49.908;8.126;2022-07-03T11:41:46;33.60;50.00
34492;DHT22;20737;49.908;8.126;2022-07-03T11:44:18;34.30;48.50
34492;DHT22;20737;49.908;8.126;2022-07-03T11:46:51;34.10;45.50
34492;DHT22;20737;49.908;8.126;2022-07-03T11:49:19;33.90;45.70
34492;DHT22;20737;49.908;8.126;2022-07-03T11:51:59;34.10;45.90
34492;DHT22;20737;49.908;8.126;2022-07-03T11:54:30;33.80;45.80
34492;DHT22;20737;49.908;8.126;2022-07-03T11:56:57;33.50;48.00
34492;DHT22;20737;49.908;8.126;2022-07-03T11:59:24;33.90;45.20
34492;DHT22;20737;49.908;8.126;2022-07-03T12:01:51;34.20;47.40
34492;DHT22;20737;49.908;8.126;2022-07-03T12:04:19;34.60;47.40
34492;DHT22;20737;49.908;8.126;2022-07-03T12:06:51;34.10;44.40
34492;DHT22;20737;49.908;8.126;2022-07-03T12:09:21;33.80;45.10
34492;DHT22;20737;49.908;8.126;2022-07-03T12:11:55;33.60;46.10
34492;DHT22;20737;49.908;8.126;2022-07-03T12:14:40;33.70;47.60
34492;DHT22;20737;49.908;8.126;2022-07-03T12:17:08;34.00;47.40
34492;DHT22;20737;49.908;8.126;2022-07-03T12:19:35;34.40;46.70
34492;DHT22;20737;49.908;8.126;2022-07-03T12:22:04;34.00;45.10
34492;DHT22;20737;49.908;8.126;2022-07-03T12:24:33;33.30;45.30
34492;DHT22;20737;49.908;8.126;2022-07-03T12:27:02;33.10;46.60
34492;DHT22;20737;49.908;8.126;2022-07-03T12:29:30;33.20;45.30
34492;DHT22;20737;49.908;8.126;2022-07-03T12:31:57;33.50;46.60
34492;DHT22;20737;49.908;8.126;2022-07-03T12:34:24;33.80;48.90
34492;DHT22;20737;49.908;8.126;2022-07-03T12:36:55;34.00;48.90
34492;DHT22;20737;49.908;8.126;2022-07-03T12:39:22;34.20;44.00
34492;DHT22;20737;49.908;8.126;2022-07-03T12:41:50;34.00;44.90
34492;DHT22;20737;49.908;8.126;2022-07-03T12:44:17;34.00;47.00
34492;DHT22;20737;49.908;8.126;2022-07-03T12:46:46;33.60;43.80
34492;DHT22;20737;49.908;8.126;2022-07-03T12:49:15;32.80;46.90
34492;DHT22;20737;49.908;8.126;2022-07-03T12:51:44;32.60;45.40
34492;DHT22;20737;49.908;8.126;2022-07-03T12:54:12;32.50;47.80
34492;DHT22;20737;49.908;8.126;2022-07-03T12:56:40;32.20;45.00
34492;DHT22;20737;49.908;8.126;2022-07-03T12:59:23;32.30;46.70
34492;DHT22;20737;49.908;8.126;2022-07-03T13:02:00;32.70;48.80
34492;DHT22;20737;49.908;8.126;2022-07-03T13:04:31;33.10;47.70
34492;DHT22;20737;49.908;8.126;2022-07-03T13:07:02;33.20;44.50
34492;DHT22;20737;49.908;8.126;2022-07-03T13:09:30;33.30;43.80
34492;DHT22;20737;49.908;8.126;2022-07-03T13:11:57;33.30;45.80
34492;DHT22;20737;49.908;8.126;2022-07-03T13:14:25;32.90;45.00
34492;DHT22;20737;49.908;8.126;2022-07-03T13:16:53;32.90;48.30
34492;DHT22;20737;49.908;8.126;2022-07-03T13:19:22;33.10;44.30
34492;DHT22;20737;49.908;8.126;2022-07-03T13:21:50;32.90;44.10
34492;DHT22;20737;49.908;8.126;2022-07-03T13:24:18;33.10;46.20
34492;DHT22;20737;49.908;8.126;2022-07-03T13:26:45;32.80;44.60
34492;DHT22;20737;49.908;8.126;2022-07-03T13:29:12;33.00;44.60
34492;DHT22;20737;49.908;8.126;2022-07-03T13:31:40;33.00;45.80
34492;DHT22;20737;49.908;8.126;2022-07-03T13:34:07;32.80;46.90
34492;DHT22;20737;49.908;8.126;2022-07-03T13:36:34;33.30;44.30
34492;DHT22;20737;49.908;8.126;2022-07-03T13:39:01;33.50;44.70
34492;DHT22;20737;49.908;8.126;2022-07-03T13:41:28;33.20;42.60
34492;DHT22;20737;49.908;8.126;2022-07-03T13:43:55;33.00;47.10
34492;DHT22;20737;49.908;8.126;2022-07-03T13:46:23;33.00;45.20
34492;DHT22;20737;49.908;8.126;2022-07-03T13:48:52;33.10;44.10
34492;DHT22;20737;49.908;8.126;2022-07-03T13:51:19;33.30;45.90
34492;DHT22;20737;49.908;8.126;2022-07-03T13:53:47;33.40;44.10
34492;DHT22;20737;49.908;8.126;2022-07-03T13:56:14;33.20;43.00
34492;DHT22;20737;49.908;8.126;2022-07-03T13:58:41;33.00;44.10
34492;DHT22;20737;49.908;8.126;2022-07-03T14:01:08;33.00;42.50
34492;DHT22;20737;49.908;8.126;2022-07-03T14:03:35;32.70;42.90
34492;DHT22;20737;49.908;8.126;2022-07-03T14:06:03;32.70;44.00
34492;DHT22;20737;49.908;8.126;2022-07-03T14:08:30;32.70;45.00
34492;DHT22;20737;49.908;8.126;2022-07-03T14:10:57;32.70;42.80
34492;DHT22;20737;49.908;8.126;2022-07-03T14:13:24;32.90;43.20
34492;DHT22;20737;49.908;8.126;2022-07-03T14:15:51;32.70;40.90
34492;DHT22;20737;49.908;8.126;2022-07-03T14:18:18;32.50;41.90
34492;DHT22;20737;49.908;8.126;2022-07-03T14:20:44;32.30;43.20
34492;DHT22;20737;49.908;8.126;2022-07-03T14:23:13;32.50;42.40
34492;DHT22;20737;49.908;8.126;2022-07-03T14:25:40;32.30;42.30
34492;DHT22;20737;49.908;8.126;2022-07-03T14:28:06;32.20;41.60
34492;DHT22;20737;49.908;8.126;2022-07-03T14:31:02;32.00;41.70
34492;DHT22;20737;49.908;8.126;2022-07-03T14:33:46;31.90;41.60
34492;DHT22;20737;49.908;8.126;2022-07-03T14:36:13;31.90;42.70
34492;DHT22;20737;49.908;8.126;2022-07-03T14:38:42;32.20;42.80
34492;DHT22;20737;49.908;8.126;2022-07-03T14:41:09;32.10;42.30
34492;DHT22;20737;49.908;8.126;2022-07-03T14:43:35;32.20;41.50
34492;DHT22;20737;49.908;8.126;2022-07-03T14:46:02;32.20;41.40
34492;DHT22;20737;49.908;8.126;2022-07-03T14:48:29;32.10;41.50
34492;DHT22;20737;49.908;8.126;2022-07-03T14:50:56;32.20;42.70
34492;DHT22;20737;49.908;8.126;2022-07-03T14:53:23;32.20;42.70
34492;DHT22;20737;49.908;8.126;2022-07-03T14:55:51;31.90;41.80
34492;DHT22;20737;49.908;8.126;2022-07-03T14:58:21;31.90;42.30
34492;DHT22;20737;49.908;8.126;2022-07-03T15:00:54;32.00;42.60
34492;DHT22;20737;49.908;8.126;2022-07-03T15:03:27;31.90;41.90
34492;DHT22;20737;49.908;8.126;2022-07-03T15:05:55;32.00;41.80
34492;DHT22;20737;49.908;8.126;2022-07-03T15:08:45;32.20;43.70
34492;DHT22;20737;49.908;8.126;2022-07-03T15:11:20;32.10;41.90
34492;DHT22;20737;49.908;8.126;2022-07-03T15:14:05;31.70;42.20
34492;DHT22;20737;49.908;8.126;2022-07-03T15:16:33;31.20;42.80
34492;DHT22;20737;49.908;8.126;2022-07-03T15:19:01;31.20;43.70
34492;DHT22;20737;49.908;8.126;2022-07-03T15:21:30;31.30;44.00
34492;DHT22;20737;49.908;8.126;2022-07-03T15:24:00;31.50;43.70
34492;DHT22;20737;49.908;8.126;2022-07-03T15:26:30;31.70;42.80
34492;DHT22;20737;49.908;8.126;2022-07-03T15:28:58;31.90;44.70
34492;DHT22;20737;49.908;8.126;2022-07-03T15:31:26;31.90;42.00
34492;DHT22;20737;49.908;8.126;2022-07-03T15:33:53;31.80;42.40
34492;DHT22;20737;49.908;8.126;2022-07-03T15:36:24;31.50;41.60
34492;DHT22;20737;49.908;8.126;2022-07-03T15:38:56;30.80;42.60
34492;DHT22;20737;49.908;8.126;2022-07-03T15:41:28;30.40;44.20
34492;DHT22;20737;49.908;8.126;2022-07-03T15:44:07;30.10;44.80
34492;DHT22;20737;49.908;8.126;2022-07-03T15:46:45;30.20;44.00
34492;DHT22;20737;49.908;8.126;2022-07-03T15:49:25;30.40;43.90